Saint Louis, Missouri
Traffic Map
Current Weather Conditions
Saint Louis, Missouri
Clear
Clear

Feels Like: -1°
Wind Chill: -1° Ceiling: Unl
Heat Index: Visibility: 10mi
Dew Point: -7° Wind: 5mph
Humidity: 54% Direction: 50° (NE)
Pressure: 30.57in Gusts: 0mph
Raw Report DataKCPS 301653Z 05004KT 10SM CLR 01/M07 A3057 RMK AO2 SLP356 T00111072
Traffic Incident Summary
Active as of:
Severity:
Category:
InformationThere was an issue retrieving the traffic information for this location. Please try a different location or try again shortly.
Advertisements
Track Severe Weather on mobile